Time;durP1;ratioP1;P1;durP2;ratioP2;P2;SDS_P1;SDS_P2;PMS_P1;PMS_P2;Temp;Humidity;BMP_temperature;BMP_pressure;BME280_temperature;BME280_humidity;BME280_pressure;Samples;Min_cycle;Max_cycle;Signal;HPM_P1;HPM_P2
2023/09/10 00:01:04;;;;;;;20.35;18.00;;;19.20;99.90;;;;;;5051614;28;20036;-65
2023/09/10 00:03:32;;;;;;;20.10;17.40;;;19.20;99.90;;;;;;5045033;28;20562;-65
2023/09/10 00:05:59;;;;;;;19.50;16.75;;;19.10;99.90;;;;;;5050881;28;20060;-65
2023/09/10 00:08:25;;;;;;;18.52;16.48;;;19.10;99.90;;;;;;5046632;28;20045;-65
2023/09/10 00:10:51;;;;;;;17.15;15.15;;;19.10;99.90;;;;;;5050560;28;20552;-65
2023/09/10 00:13:17;;;;;;;16.20;14.50;;;19.10;99.90;;;;;;5051250;28;20049;-65
2023/09/10 00:15:43;;;;;;;16.15;14.55;;;19.00;99.90;;;;;;5032928;28;20040;-65
2023/09/10 00:18:09;;;;;;;15.27;13.75;;;19.00;99.90;;;;;;5041972;28;20048;-65
2023/09/10 00:20:34;;;;;;;18.70;15.05;;;18.90;99.90;;;;;;5035608;28;20186;-65
2023/09/10 00:23:00;;;;;;;16.70;15.10;;;19.00;99.90;;;;;;5041870;28;20037;-65
2023/09/10 00:25:26;;;;;;;17.90;16.00;;;19.00;99.90;;;;;;5050589;28;20040;-65
2023/09/10 00:27:52;;;;;;;18.88;16.83;;;18.90;99.90;;;;;;5047157;28;20045;-65
2023/09/10 00:30:18;;;;;;;18.27;16.38;;;18.90;99.90;;;;;;5050680;28;20076;-65
2023/09/10 00:32:44;;;;;;;19.63;16.27;;;18.90;99.90;;;;;;5046860;28;20466;-65
2023/09/10 00:35:09;;;;;;;18.00;16.10;;;18.90;99.90;;;;;;5050453;28;20086;-65
2023/09/10 00:37:35;;;;;;;18.55;16.60;;;18.90;99.90;;;;;;5050571;28;20086;-65
2023/09/10 00:40:01;;;;;;;16.05;14.35;;;18.90;99.90;;;;;;5013762;28;20034;-65
2023/09/10 00:42:26;;;;;;;16.20;14.38;;;18.90;99.90;;;;;;5048515;28;20500;-65
2023/09/10 00:44:52;;;;;;;17.38;15.25;;;18.90;99.90;;;;;;5049986;28;20051;-65
2023/09/10 00:47:17;;;;;;;18.08;16.17;;;18.80;99.90;;;;;;5044873;28;20041;-65
2023/09/10 00:49:44;;;;;;;20.20;17.35;;;18.90;99.90;;;;;;5050018;28;20037;-65
2023/09/10 00:52:14;;;;;;;21.30;18.67;;;18.80;99.90;;;;;;5049684;28;20099;-65
2023/09/10 00:54:39;;;;;;;22.27;19.98;;;18.80;99.90;;;;;;5012937;28;20041;-65
2023/09/10 00:57:05;;;;;;;24.00;20.25;;;18.80;99.90;;;;;;5034860;28;20503;-65
2023/09/10 00:59:31;;;;;;;26.23;22.17;;;18.90;99.90;;;;;;5047553;28;20098;-65
2023/09/10 01:02:02;;;;;;;27.50;24.60;;;18.80;99.90;;;;;;5042952;28;20367;-65
2023/09/10 01:04:28;;;;;;;27.52;23.92;;;18.90;99.90;;;;;;5049617;28;20040;-65
2023/09/10 01:06:54;;;;;;;29.17;26.17;;;18.90;99.90;;;;;;5050188;28;20076;-65
2023/09/10 01:09:20;;;;;;;28.60;25.50;;;18.90;99.90;;;;;;5046638;28;20083;-65
2023/09/10 01:12:00;;;;;;;28.85;25.85;;;18.90;99.90;;;;;;5049053;28;20112;-65
2023/09/10 01:14:34;;;;;;;27.10;24.20;;;18.90;99.90;;;;;;5046144;28;20035;-65
2023/09/10 01:17:14;;;;;;;22.52;20.17;;;18.90;99.90;;;;;;5046750;28;20033;-65
2023/09/10 01:19:52;;;;;;;23.00;20.35;;;18.80;99.90;;;;;;5048836;28;20040;-65
2023/09/10 01:22:43;;;;;;;22.15;19.35;;;18.80;99.90;;;;;;5020192;28;20102;-65
2023/09/10 01:25:09;;;;;;;23.83;21.42;;;18.70;99.90;;;;;;5049392;28;20052;-65
2023/09/10 01:27:35;;;;;;;24.20;21.60;;;18.70;99.90;;;;;;5034582;28;20037;-65
2023/09/10 01:30:00;;;;;;;25.23;22.50;;;18.60;99.90;;;;;;5050187;28;20040;-65
2023/09/10 01:32:28;;;;;;;25.42;22.52;;;18.60;99.90;;;;;;5048806;28;20455;-65
2023/09/10 01:35:35;;;;;;;26.80;23.90;;;18.70;99.90;;;;;;5049422;28;20499;-65
2023/09/10 01:38:09;;;;;;;26.08;22.30;;;18.70;99.90;;;;;;5004187;28;20065;-65
2023/09/10 01:41:18;;;;;;;24.58;22.00;;;18.60;99.90;;;;;;5050051;28;20049;-65
2023/09/10 01:43:44;;;;;;;25.83;21.77;;;18.60;99.90;;;;;;4989485;28;20049;-65
2023/09/10 01:46:12;;;;;;;25.55;22.95;;;18.60;99.90;;;;;;5037202;28;20048;-65
2023/09/10 01:48:37;;;;;;;27.27;24.02;;;18.50;99.90;;;;;;5049748;28;20154;-65
2023/09/10 01:51:03;;;;;;;25.60;22.90;;;18.50;99.90;;;;;;5048783;28;20526;-65
2023/09/10 01:53:28;;;;;;;25.05;22.42;;;18.50;99.90;;;;;;5034147;28;20048;-65
2023/09/10 01:55:55;;;;;;;24.02;21.42;;;18.50;99.90;;;;;;5026489;28;20037;-65
2023/09/10 01:58:20;;;;;;;23.30;20.90;;;18.50;99.90;;;;;;5048565;28;20414;-65
2023/09/10 02:00:46;;;;;;;21.98;19.67;;;18.40;99.90;;;;;;5049780;28;20033;-65
2023/09/10 02:03:12;;;;;;;23.10;20.60;;;18.50;99.90;;;;;;5031709;28;20188;-65
2023/09/10 02:05:37;;;;;;;23.30;20.80;;;18.40;99.90;;;;;;5048493;28;20045;-65
2023/09/10 02:08:04;;;;;;;22.85;20.48;;;18.40;99.90;;;;;;5039577;28;20041;-65
2023/09/10 02:10:32;;;;;;;22.38;20.15;;;18.30;99.90;;;;;;5052499;28;20423;-65
2023/09/10 02:12:57;;;;;;;24.00;21.42;;;18.40;99.90;;;;;;5053738;28;20128;-65
2023/09/10 02:15:23;;;;;;;24.75;22.05;;;18.30;99.90;;;;;;5052468;28;20116;-65
2023/09/10 02:17:48;;;;;;;24.05;21.58;;;18.30;99.90;;;;;;5051307;28;20402;-65
2023/09/10 02:20:14;;;;;;;23.42;20.92;;;18.20;99.90;;;;;;5035115;28;20033;-65
2023/09/10 02:22:40;;;;;;;22.63;20.05;;;18.30;99.90;;;;;;5053309;28;20112;-65
2023/09/10 02:25:07;;;;;;;22.33;19.98;;;18.20;99.90;;;;;;5052413;28;20037;-65
2023/09/10 02:27:34;;;;;;;21.85;19.52;;;18.20;99.90;;;;;;5041635;28;20041;-65
2023/09/10 02:30:01;;;;;;;24.17;19.90;;;18.30;99.90;;;;;;5044625;28;20156;-65
2023/09/10 02:32:26;;;;;;;22.13;19.83;;;18.10;99.90;;;;;;5051966;28;20519;-64
2023/09/10 02:34:52;;;;;;;22.48;19.70;;;18.20;99.90;;;;;;5052918;28;20059;-65
2023/09/10 02:37:17;;;;;;;28.33;21.90;;;18.20;99.90;;;;;;5037959;28;20049;-65
2023/09/10 02:39:43;;;;;;;22.80;20.23;;;18.10;99.90;;;;;;5052154;28;20131;-64
2023/09/10 02:42:09;;;;;;;22.45;20.05;;;18.10;99.90;;;;;;5048799;28;20044;-64
2023/09/10 02:44:35;;;;;;;22.05;19.85;;;18.20;99.90;;;;;;5052172;28;20048;-64
2023/09/10 02:47:00;;;;;;;22.40;20.05;;;18.10;99.90;;;;;;5040045;28;20041;-64
2023/09/10 02:49:26;;;;;;;23.85;20.15;;;18.10;99.90;;;;;;5051330;28;20033;-65
2023/09/10 02:51:52;;;;;;;23.60;20.40;;;18.10;99.90;;;;;;5052526;28;20037;-65
2023/09/10 02:54:17;;;;;;;23.65;21.00;;;18.10;99.90;;;;;;5038976;28;20699;-65
2023/09/10 02:56:46;;;;;;;22.73;20.20;;;18.10;99.90;;;;;;5043843;28;20036;-65
2023/09/10 02:59:25;;;;;;;23.80;20.45;;;18.10;99.90;;;;;;5046363;28;20052;-66
2023/09/10 03:01:52;;;;;;;23.60;21.10;;;18.10;99.90;;;;;;5045529;28;20138;-65
2023/09/10 03:04:17;;;;;;;25.70;19.25;;;18.00;99.90;;;;;;5044214;28;20088;-65
2023/09/10 03:06:48;;;;;;;22.02;19.65;;;18.00;99.90;;;;;;5039715;28;20122;-65
2023/09/10 03:09:15;;;;;;;22.20;19.90;;;18.00;99.90;;;;;;5052669;28;20045;-64
2023/09/10 03:11:42;;;;;;;26.10;21.60;;;18.00;99.90;;;;;;5051495;28;20059;-65
2023/09/10 03:14:08;;;;;;;23.77;20.85;;;18.00;99.90;;;;;;5051574;28;20043;-65
2023/09/10 03:16:35;;;;;;;20.40;18.27;;;17.90;99.90;;;;;;5051906;28;20112;-65
2023/09/10 03:19:02;;;;;;;20.08;18.08;;;18.00;99.90;;;;;;5047830;28;20036;-65
2023/09/10 03:21:28;;;;;;;19.95;17.95;;;17.90;99.90;;;;;;5051010;28;20073;-65
2023/09/10 03:23:54;;;;;;;22.98;20.40;;;17.90;99.90;;;;;;5052115;28;20111;-65
2023/09/10 03:26:20;;;;;;;23.75;20.45;;;17.90;99.90;;;;;;5042582;28;20043;-64
2023/09/10 03:28:46;;;;;;;23.52;20.63;;;17.90;99.90;;;;;;5051761;28;20116;-65
2023/09/10 03:31:11;;;;;;;27.58;23.67;;;17.90;99.90;;;;;;5034097;28;20045;-65
2023/09/10 03:33:37;;;;;;;28.05;24.60;;;17.90;99.90;;;;;;5032906;28;20047;-64
2023/09/10 03:36:03;;;;;;;29.10;25.95;;;17.90;99.90;;;;;;5051823;28;20041;-65
2023/09/10 03:38:28;;;;;;;28.55;25.55;;;17.90;99.90;;;;;;5044432;28;20380;-65
2023/09/10 03:40:54;;;;;;;28.75;25.10;;;17.90;99.90;;;;;;5051301;28;20087;-65
2023/09/10 03:43:20;;;;;;;28.27;25.15;;;17.90;99.90;;;;;;5051540;28;20044;-65
2023/09/10 03:45:45;;;;;;;32.85;25.55;;;17.80;99.90;;;;;;5050817;28;20087;-65
2023/09/10 03:48:12;;;;;;;29.50;24.70;;;17.90;99.90;;;;;;5051481;28;20073;-65
2023/09/10 03:50:38;;;;;;;28.05;24.95;;;17.80;99.90;;;;;;5043351;28;20072;-65
2023/09/10 03:53:04;;;;;;;27.25;24.25;;;17.80;99.90;;;;;;5051778;28;20091;-65
2023/09/10 03:55:29;;;;;;;25.30;22.52;;;17.80;99.90;;;;;;5041437;28;20068;-64
2023/09/10 03:57:55;;;;;;;24.65;22.05;;;17.80;99.90;;;;;;5040282;28;20037;-64
2023/09/10 04:00:20;;;;;;;26.13;22.67;;;17.80;99.90;;;;;;5050599;28;20055;-64
2023/09/10 04:02:46;;;;;;;28.50;23.60;;;17.80;99.90;;;;;;5050712;28;20048;-66
2023/09/10 04:05:12;;;;;;;28.45;24.40;;;17.80;99.90;;;;;;5046668;28;20550;-65
2023/09/10 04:07:38;;;;;;;31.45;26.73;;;17.70;99.90;;;;;;5050280;28;20515;-64
2023/09/10 04:10:06;;;;;;;27.52;23.75;;;17.80;99.90;;;;;;5049830;28;20125;-65
2023/09/10 04:12:31;;;;;;;21.65;19.33;;;17.70;99.90;;;;;;5047225;28;20048;-64
2023/09/10 04:14:57;;;;;;;25.00;19.50;;;17.70;99.90;;;;;;5048480;28;20395;-64
2023/09/10 04:17:23;;;;;;;25.42;21.52;;;17.70;99.90;;;;;;5041078;28;20136;-65
2023/09/10 04:19:49;;;;;;;27.88;24.83;;;17.70;99.90;;;;;;5048839;28;20495;-65
2023/09/10 04:22:14;;;;;;;33.92;27.48;;;17.70;99.90;;;;;;5051104;28;20037;-66
2023/09/10 04:24:40;;;;;;;30.85;24.95;;;17.70;99.90;;;;;;5050282;28;20487;-65
2023/09/10 04:27:06;;;;;;;20.25;17.60;;;17.70;99.90;;;;;;5050954;28;20403;-65
2023/09/10 04:29:32;;;;;;;20.35;18.25;;;17.70;99.90;;;;;;5044637;28;20045;-64
2023/09/10 04:31:57;;;;;;;21.40;19.30;;;17.70;99.90;;;;;;5049951;28;20037;-65
2023/09/10 04:34:23;;;;;;;22.33;20.05;;;17.60;99.90;;;;;;5049215;28;20037;-65
2023/09/10 04:36:48;;;;;;;24.48;21.88;;;17.60;99.90;;;;;;5035076;28;20116;-64
2023/09/10 04:39:14;;;;;;;29.23;24.60;;;17.60;99.90;;;;;;5051215;28;20041;-64
2023/09/10 04:41:39;;;;;;;29.35;25.13;;;17.50;99.90;;;;;;5050278;28;20041;-65
2023/09/10 04:44:06;;;;;;;29.15;25.85;;;17.60;99.90;;;;;;5050722;28;20075;-65
2023/09/10 04:46:31;;;;;;;30.20;26.98;;;17.50;99.90;;;;;;5036743;28;20117;-65
2023/09/10 04:49:00;;;;;;;36.03;30.17;;;17.50;99.90;;;;;;5030263;28;20124;-65
2023/09/10 04:51:25;;;;;;;36.50;31.65;;;17.50;99.90;;;;;;5050134;28;20037;-64
2023/09/10 04:53:51;;;;;;;40.75;33.35;;;17.60;99.90;;;;;;5039374;28;20033;-64
2023/09/10 04:56:17;;;;;;;41.85;33.90;;;17.60;99.90;;;;;;5050134;28;20407;-65
2023/09/10 04:58:43;;;;;;;41.75;34.78;;;17.60;99.90;;;;;;5050018;28;20049;-64
2023/09/10 05:01:08;;;;;;;40.00;34.33;;;17.60;99.90;;;;;;5044604;28;20040;-65
2023/09/10 05:03:34;;;;;;;40.08;34.17;;;17.60;99.90;;;;;;5049717;28;20029;-65
2023/09/10 05:06:01;;;;;;;43.22;35.75;;;17.60;99.90;;;;;;5039119;28;20121;-65
2023/09/10 05:08:27;;;;;;;42.22;35.97;;;17.60;99.90;;;;;;5041225;28;20042;-65
2023/09/10 05:10:54;;;;;;;41.83;36.25;;;17.70;99.90;;;;;;5048342;28;20048;-64
2023/09/10 05:13:20;;;;;;;43.38;37.13;;;17.70;99.90;;;;;;5047639;28;20579;-65
2023/09/10 05:15:46;;;;;;;47.58;39.13;;;17.70;99.90;;;;;;5047266;28;20120;-65
2023/09/10 05:18:12;;;;;;;44.80;38.28;;;17.70;99.90;;;;;;5042614;28;20041;-65
2023/09/10 05:20:38;;;;;;;46.15;37.75;;;17.70;99.90;;;;;;5043723;28;20040;-64
2023/09/10 05:23:04;;;;;;;44.83;38.33;;;17.70;99.90;;;;;;5035089;28;20056;-64
2023/09/10 05:25:29;;;;;;;49.72;40.97;;;17.80;99.90;;;;;;5033548;28;20053;-64
2023/09/10 05:27:55;;;;;;;41.22;36.67;;;17.80;99.90;;;;;;5049173;28;20048;-65
2023/09/10 05:30:20;;;;;;;33.60;29.75;;;17.70;99.90;;;;;;5042051;28;20163;-65
2023/09/10 05:32:46;;;;;;;30.50;26.83;;;17.70;99.90;;;;;;5028811;28;20048;-65
2023/09/10 05:35:12;;;;;;;31.33;28.08;;;17.70;99.90;;;;;;5043610;28;20651;-65
2023/09/10 05:37:37;;;;;;;34.03;30.42;;;17.70;99.90;;;;;;5049142;28;20033;-64
2023/09/10 05:40:03;;;;;;;39.20;32.67;;;17.70;99.90;;;;;;5049438;28;20045;-65
2023/09/10 05:42:29;;;;;;;43.80;35.85;;;17.70;99.90;;;;;;5049590;28;20122;-65
2023/09/10 05:44:54;;;;;;;45.50;39.70;;;17.70;99.90;;;;;;5048769;28;20112;-65
2023/09/10 05:47:20;;;;;;;46.78;40.70;;;17.60;99.90;;;;;;5048725;28;20491;-65
2023/09/10 05:49:51;;;;;;;48.20;41.53;;;17.80;99.90;;;;;;5048844;28;20045;-65
2023/09/10 05:52:17;;;;;;;50.85;42.67;;;17.80;99.90;;;;;;5039258;28;20514;-66
2023/09/10 05:54:42;;;;;;;47.30;40.90;;;17.80;99.90;;;;;;5042461;28;20029;-65
2023/09/10 05:57:08;;;;;;;49.65;43.03;;;17.80;99.90;;;;;;5042664;28;20040;-64
2023/09/10 05:59:33;;;;;;;51.83;42.67;;;17.80;99.90;;;;;;5042685;28;20041;-65
2023/09/10 06:01:59;;;;;;;47.13;40.10;;;17.90;99.90;;;;;;5048694;28;20051;-65
2023/09/10 06:04:25;;;;;;;44.38;39.55;;;17.80;99.90;;;;;;5032855;28;20084;-65
2023/09/10 06:06:50;;;;;;;45.47;40.47;;;17.90;99.90;;;;;;5048889;28;20068;-65
2023/09/10 06:09:16;;;;;;;47.65;41.38;;;17.90;99.90;;;;;;5039778;28;20073;-65
2023/09/10 06:11:41;;;;;;;49.90;44.30;;;18.00;99.90;;;;;;5048685;28;20435;-65
2023/09/10 06:14:08;;;;;;;52.60;44.95;;;18.00;99.90;;;;;;5048905;28;20033;-64
2023/09/10 06:16:33;;;;;;;57.33;47.78;;;18.00;99.90;;;;;;5042779;28;20033;-65
2023/09/10 06:18:59;;;;;;;52.97;47.15;;;18.00;99.90;;;;;;5049411;28;20041;-65
2023/09/10 06:21:25;;;;;;;54.75;48.13;;;18.10;99.90;;;;;;5048640;28;20037;-65
2023/09/10 06:23:50;;;;;;;55.78;47.53;;;18.10;99.90;;;;;;5048729;28;20036;-65
2023/09/10 06:26:16;;;;;;;57.67;48.50;;;18.10;99.90;;;;;;5048899;28;20098;-66
2023/09/10 06:28:41;;;;;;;55.40;49.08;;;18.20;99.90;;;;;;5037179;28;20112;-65
2023/09/10 06:31:08;;;;;;;53.78;47.88;;;18.20;99.90;;;;;;5048034;28;20598;-64
2023/09/10 06:33:33;;;;;;;56.22;47.92;;;18.20;99.90;;;;;;5032970;28;20559;-65
2023/09/10 06:36:00;;;;;;;59.63;49.92;;;18.20;99.90;;;;;;5047825;28;20120;-64
2023/09/10 06:38:28;;;;;;;60.38;49.58;;;18.30;99.90;;;;;;5047356;28;20076;-66
2023/09/10 06:40:53;;;;;;;64.13;48.60;;;18.30;99.90;;;;;;5043517;28;20412;-65
2023/09/10 06:43:19;;;;;;;57.35;48.58;;;18.40;99.90;;;;;;5045517;28;20048;-65
2023/09/10 06:45:45;;;;;;;61.08;51.42;;;18.40;99.90;;;;;;5041824;28;20501;-65
2023/09/10 06:48:10;;;;;;;59.50;48.65;;;18.50;99.90;;;;;;5044006;28;20036;-65
2023/09/10 06:50:36;;;;;;;58.33;50.38;;;18.50;99.90;;;;;;5042168;28;20082;-64
2023/09/10 06:53:01;;;;;;;64.07;49.22;;;18.60;99.90;;;;;;5046796;28;20065;-64
2023/09/10 06:55:27;;;;;;;59.20;48.72;;;18.60;99.90;;;;;;5045077;28;20036;-65
2023/09/10 06:57:53;;;;;;;64.35;50.10;;;18.70;99.90;;;;;;5052409;28;20045;-65
2023/09/10 07:00:19;;;;;;;59.13;47.67;;;18.70;99.90;;;;;;5031504;28;20140;-65
2023/09/10 07:02:45;;;;;;;55.28;47.28;;;18.70;99.90;;;;;;5049588;28;20037;-65
2023/09/10 07:05:10;;;;;;;61.08;50.78;;;18.80;99.90;;;;;;5042050;28;20395;-65
2023/09/10 07:07:36;;;;;;;59.58;48.45;;;18.80;99.90;;;;;;5049279;28;20045;-65
2023/09/10 07:10:02;;;;;;;55.50;47.08;;;18.90;99.90;;;;;;5049006;28;20052;-65
2023/09/10 07:12:28;;;;;;;52.75;46.90;;;18.90;99.90;;;;;;5045958;28;20052;-65
2023/09/10 07:14:54;;;;;;;53.70;47.00;;;19.00;99.90;;;;;;5046518;28;20028;-65
2023/09/10 07:17:19;;;;;;;54.08;45.35;;;19.00;99.90;;;;;;5050600;28;20380;-65
2023/09/10 07:19:45;;;;;;;52.72;46.95;;;19.10;99.90;;;;;;5051229;28;20091;-65
2023/09/10 07:22:10;;;;;;;56.80;47.47;;;19.10;99.90;;;;;;5050509;28;20037;-65
2023/09/10 07:24:36;;;;;;;55.97;47.67;;;19.20;99.90;;;;;;5051112;28;20523;-64
2023/09/10 07:27:02;;;;;;;56.83;48.15;;;19.20;99.90;;;;;;5045084;28;20043;-64
2023/09/10 07:29:28;;;;;;;53.97;44.15;;;19.30;99.90;;;;;;5048266;28;20045;-64
2023/09/10 07:31:54;;;;;;;53.50;45.05;;;19.40;99.90;;;;;;5040998;28;20048;-65
2023/09/10 07:34:21;;;;;;;51.50;45.35;;;19.50;99.90;;;;;;5040657;28;20050;-64
2023/09/10 07:36:46;;;;;;;55.47;45.35;;;19.50;99.90;;;;;;5042256;28;20033;-64
2023/09/10 07:39:13;;;;;;;52.28;43.60;;;19.60;99.90;;;;;;5025991;28;20037;-65
2023/09/10 07:41:39;;;;;;;54.75;45.53;;;19.60;99.90;;;;;;5035933;28;20399;-64
2023/09/10 07:44:05;;;;;;;55.20;42.47;;;19.70;99.90;;;;;;5018227;28;20045;-64
2023/09/10 07:46:31;;;;;;;48.97;42.85;;;19.70;99.90;;;;;;5036978;28;20041;-64
2023/09/10 07:48:57;;;;;;;52.47;42.10;;;19.80;99.90;;;;;;5043386;28;20076;-65
2023/09/10 07:51:23;;;;;;;47.22;42.03;;;19.90;99.90;;;;;;5034423;28;20483;-64
2023/09/10 07:53:48;;;;;;;47.15;40.55;;;19.90;99.90;;;;;;5040465;28;20035;-64
2023/09/10 07:56:14;;;;;;;46.15;40.70;;;20.00;99.90;;;;;;5041387;28;20432;-64
2023/09/10 07:58:39;;;;;;;44.42;39.63;;;20.10;99.90;;;;;;5037592;28;20040;-65
2023/09/10 08:01:05;;;;;;;48.65;38.58;;;20.10;99.90;;;;;;5045955;28;20094;-64
2023/09/10 08:03:30;;;;;;;45.63;39.47;;;20.20;99.90;;;;;;5048314;28;20495;-65
2023/09/10 08:05:56;;;;;;;45.55;38.08;;;20.20;99.90;;;;;;5019338;28;20072;-65
2023/09/10 08:08:22;;;;;;;45.05;39.15;;;20.30;99.90;;;;;;5022460;28;20056;-64
2023/09/10 08:10:50;;;;;;;44.40;38.35;;;20.40;99.90;;;;;;5034152;28;20075;-65
2023/09/10 08:13:16;;;;;;;42.60;37.58;;;20.50;99.90;;;;;;5036576;28;20045;-65
2023/09/10 08:15:42;;;;;;;43.80;39.13;;;20.50;99.90;;;;;;5051081;28;20033;-64
2023/09/10 08:18:11;;;;;;;44.22;37.28;;;20.60;99.90;;;;;;5051094;28;20045;-65
2023/09/10 08:20:38;;;;;;;43.55;37.15;;;20.70;99.90;;;;;;5043006;28;20507;-65
2023/09/10 08:23:04;;;;;;;43.17;38.53;;;20.80;99.90;;;;;;5042012;28;20064;-65
2023/09/10 08:25:29;;;;;;;46.92;38.17;;;20.90;99.90;;;;;;5008981;28;20150;-65
2023/09/10 08:27:55;;;;;;;43.30;38.58;;;21.00;99.90;;;;;;5050346;28;20044;-65
2023/09/10 08:30:21;;;;;;;44.70;37.38;;;21.00;99.90;;;;;;5050945;28;20372;-65
2023/09/10 08:32:47;;;;;;;41.88;37.25;;;21.10;99.90;;;;;;5037291;28;20029;-65
2023/09/10 08:35:13;;;;;;;44.45;38.53;;;21.20;99.90;;;;;;5046850;28;20112;-65
2023/09/10 08:37:39;;;;;;;42.75;37.28;;;21.20;99.90;;;;;;5042744;28;20064;-65
2023/09/10 08:40:08;;;;;;;42.95;37.50;;;21.30;99.90;;;;;;5041681;28;20132;-66
2023/09/10 08:43:01;;;;;;;41.50;37.00;;;21.40;99.90;;;;;;5035928;28;20033;-66
2023/09/10 08:45:26;;;;;;;43.53;38.97;;;21.50;99.90;;;;;;5036773;28;20416;-65
2023/09/10 08:47:55;;;;;;;40.35;36.05;;;21.60;99.90;;;;;;5048083;28;20051;-66
2023/09/10 08:50:23;;;;;;;41.22;36.10;;;21.60;99.90;;;;;;5032245;28;20042;-66
2023/09/10 08:52:50;;;;;;;43.10;38.13;;;21.70;99.90;;;;;;5036014;28;20128;-66
2023/09/10 08:55:16;;;;;;;41.28;36.85;;;21.80;99.90;;;;;;5047911;28;20045;-66
2023/09/10 08:57:43;;;;;;;40.90;36.47;;;21.90;99.90;;;;;;5041354;28;20392;-66
2023/09/10 09:00:12;;;;;;;40.05;35.05;;;22.00;99.90;;;;;;5037752;28;20057;-66
2023/09/10 09:02:40;;;;;;;39.45;35.20;;;22.10;99.90;;;;;;5045024;28;20527;-66
2023/09/10 09:05:06;;;;;;;;;;;22.20;99.90;;;;;;5044406;28;20041;-66
2023/09/10 09:07:34;;;;;;;;;;;22.30;99.90;;;;;;5047158;28;19917;-66
2023/09/10 09:10:02;;;;;;;34.92;31.27;;;22.40;99.90;;;;;;5050345;28;19925;-66
2023/09/10 09:12:32;;;;;;;35.55;31.70;;;22.60;99.90;;;;;;5030871;28;20447;-66
2023/09/10 09:14:59;;;;;;;;;;;22.80;99.90;;;;;;5050327;28;20041;-66
2023/09/10 09:17:24;;;;;;;32.83;29.27;;;22.90;99.90;;;;;;5049658;28;19923;-66
2023/09/10 09:19:51;;;;;;;33.17;29.70;;;23.10;99.90;;;;;;5049694;28;20108;-66
2023/09/10 09:22:20;;;;;;;34.13;27.52;;;23.30;99.90;;;;;;5050009;28;20037;-66
2023/09/10 09:24:47;;;;;;;;;;;23.50;99.90;;;;;;5050058;28;20078;-66
2023/09/10 09:27:14;;;;;;;30.67;26.35;;;23.70;99.90;;;;;;5023059;28;19925;-66
2023/09/10 09:29:40;;;;;;;30.13;25.85;;;23.90;99.90;;;;;;5049527;28;20048;-66
2023/09/10 09:32:05;;;;;;;;;;;24.10;99.90;;;;;;5050496;28;20041;-66
2023/09/10 09:34:32;;;;;;;;;;;24.30;99.90;;;;;;5043491;28;19917;-66
2023/09/10 09:36:57;;;;;;;29.83;26.73;;;24.50;99.90;;;;;;5042312;28;19916;-66
2023/09/10 09:39:23;;;;;;;27.45;24.55;;;24.60;99.90;;;;;;5040587;28;20787;-66
2023/09/10 09:41:53;;;;;;;28.30;25.35;;;24.80;99.90;;;;;;5039626;28;20090;-66
2023/09/10 09:44:19;;;;;;;27.65;24.25;;;24.90;99.90;;;;;;5048443;28;20040;-66
2023/09/10 09:46:47;;;;;;;26.73;23.92;;;25.10;99.90;;;;;;5049240;28;20399;-66
2023/09/10 09:49:13;;;;;;;28.67;25.50;;;25.40;99.90;;;;;;5049124;28;20045;-66
2023/09/10 09:51:40;;;;;;;25.63;22.95;;;25.50;99.90;;;;;;5031927;28;20063;-66
2023/09/10 09:54:09;;;;;;;26.77;23.92;;;25.60;99.90;;;;;;5049886;28;20041;-66
2023/09/10 09:56:37;;;;;;;27.77;23.88;;;25.90;99.90;;;;;;5033253;28;20041;-66
2023/09/10 09:59:03;;;;;;;27.45;24.17;;;26.00;99.90;;;;;;5044401;28;20095;-66
2023/09/10 10:01:28;;;;;;;27.92;25.02;;;26.10;99.90;;;;;;5042924;28;20037;-66
2023/09/10 10:03:56;;;;;;;27.33;22.75;;;26.10;99.90;;;;;;5036324;28;20541;-66
2023/09/10 10:06:22;;;;;;;26.02;23.25;;;26.30;99.90;;;;;;5035764;28;20052;-66
2023/09/10 10:08:49;;;;;;;27.95;19.98;;;26.30;99.90;;;;;;5027573;28;20033;-66
2023/09/10 10:11:29;;;;;;;21.52;19.33;;;26.50;99.90;;;;;;5048106;28;20040;-66
2023/09/10 10:13:57;;;;;;;24.05;21.10;;;26.70;99.90;;;;;;5047784;28;20069;-66
2023/09/10 10:16:24;;;;;;;27.48;19.85;;;26.90;99.90;;;;;;5048357;28;20103;-67
2023/09/10 10:18:50;;;;;;;29.35;20.80;;;27.00;99.90;;;;;;5048401;28;20067;-66
2023/09/10 10:21:16;;;;;;;20.55;18.38;;;27.20;99.90;;;;;;5047122;28;20041;-66
2023/09/10 10:23:42;;;;;;;23.10;20.02;;;27.30;99.90;;;;;;5031588;28;20043;-66
2023/09/10 10:26:08;;;;;;;21.63;19.30;;;27.30;99.90;;;;;;5047669;28;20107;-67
2023/09/10 10:28:35;;;;;;;20.50;17.95;;;27.50;99.90;;;;;;5049573;28;20119;-66
2023/09/10 10:31:15;;;;;;;21.30;17.17;;;27.60;99.90;;;;;;5048575;28;20103;-67
2023/09/10 10:34:02;;;;;;;19.70;17.70;;;27.80;99.90;;;;;;5027514;28;20037;-67
2023/09/10 10:36:52;;;;;;;21.77;16.80;;;27.90;99.90;;;;;;5049461;28;20095;-67
2023/09/10 10:39:27;;;;;;;22.73;19.65;;;27.90;99.90;;;;;;5049935;28;20040;-67
2023/09/10 10:41:55;;;;;;;24.10;18.67;;;27.90;99.90;;;;;;5038323;28;20093;-66
2023/09/10 10:44:36;;;;;;;21.20;16.40;;;28.00;99.90;;;;;;5050519;28;20045;-66
2023/09/10 10:47:13;;;;;;;18.35;15.50;;;28.10;99.90;;;;;;5043981;28;20124;-67
2023/09/10 10:49:45;;;;;;;26.35;14.27;;;28.30;99.90;;;;;;5034335;28;20045;-67
2023/09/10 10:52:13;;;;;;;17.90;12.80;;;28.40;99.90;;;;;;5053274;28;20037;-66
2023/09/10 10:54:40;;;;;;;20.27;14.88;;;28.60;99.90;;;;;;5051348;28;20435;-67
2023/09/10 10:57:06;;;;;;;21.90;13.38;;;28.60;99.90;;;;;;5051781;28;20514;-67
2023/09/10 10:59:33;;;;;;;26.88;13.90;;;28.50;99.90;;;;;;5048546;28;20041;-67
2023/09/10 11:02:28;;;;;;;19.45;12.82;;;28.60;99.90;;;;;;5052448;28;20087;-67
2023/09/10 11:04:55;;;;;;;20.55;13.48;;;28.70;99.90;;;;;;5033197;28;20060;-67
2023/09/10 11:07:22;;;;;;;18.58;13.05;;;28.70;99.90;;;;;;5039396;28;20037;-67
2023/09/10 11:09:48;;;;;;;16.88;11.32;;;28.70;99.90;;;;;;5035087;28;20084;-67
2023/09/10 11:12:15;;;;;;;24.40;12.38;;;28.80;99.90;;;;;;5047334;28;20033;-67
2023/09/10 11:14:59;;;;;;;14.57;10.38;;;28.80;99.90;;;;;;5044812;28;20041;-67
2023/09/10 11:17:35;;;;;;;20.75;11.38;;;28.90;99.90;;;;;;5047880;28;20120;-67
2023/09/10 11:20:01;;;;;;;;;;;29.00;99.90;;;;;;5046723;28;20037;-67
2023/09/10 11:22:27;;;;;;;17.48;11.38;;;29.20;99.90;;;;;;5052060;28;19920;-67
2023/09/10 11:25:06;;;;;;;16.70;11.00;;;29.40;99.90;;;;;;5038875;28;20041;-67
2023/09/10 11:27:33;;;;;;;22.17;11.82;;;29.50;99.90;;;;;;5041453;28;20123;-67
2023/09/10 11:30:23;;;;;;;21.30;10.80;;;29.60;99.90;;;;;;5051585;28;20633;-67
2023/09/10 11:32:50;;;;;;;18.07;10.70;;;29.60;99.90;;;;;;5020702;28;20071;-67
2023/09/10 11:35:19;;;;;;;23.73;10.68;;;29.70;99.90;;;;;;5038406;28;20048;-67
2023/09/10 11:37:47;;;;;;;20.38;10.27;;;29.80;99.90;;;;;;5051793;28;20079;-67
2023/09/10 11:40:13;;;;;;;21.25;10.30;;;29.90;99.90;;;;;;5052397;28;20082;-67
2023/09/10 11:42:42;;;;;;;19.20;10.38;;;30.10;99.90;;;;;;5046854;28;20036;-67
2023/09/10 11:45:09;;;;;;;17.63;11.13;;;30.20;99.90;;;;;;5051345;28;20755;-67
2023/09/10 11:47:35;;;;;;;21.17;9.77;;;30.20;99.90;;;;;;5050169;28;20045;-67
2023/09/10 11:50:03;;;;;;;16.83;10.43;;;30.10;99.90;;;;;;5051484;28;20037;-67
2023/09/10 11:52:29;;;;;;;21.63;9.25;;;30.10;99.90;;;;;;5042201;28;20181;-67
2023/09/10 11:54:57;;;;;;;24.25;9.60;;;30.20;99.90;;;;;;5051217;28;20488;-67
2023/09/10 11:57:23;;;;;;;25.13;10.93;;;30.20;99.90;;;;;;5051287;28;20387;-67
2023/09/10 11:59:52;;;;;;;20.02;10.27;;;30.20;99.90;;;;;;5051658;28;20044;-67
2023/09/10 12:02:20;;;;;;;23.30;10.35;;;30.30;99.90;;;;;;5050311;28;20506;-67
2023/09/10 12:04:46;;;;;;;23.52;10.05;;;30.20;99.90;;;;;;5051410;28;20143;-67
2023/09/10 12:07:11;;;;;;;18.58;9.15;;;30.20;99.90;;;;;;5051366;28;20108;-67
2023/09/10 12:09:37;;;;;;;16.02;9.70;;;30.20;99.90;;;;;;5049530;28;20029;-67
2023/09/10 12:12:14;;;;;;;22.05;9.75;;;30.20;99.90;;;;;;5044755;28;20045;-67
2023/09/10 12:14:40;;;;;;;18.58;9.50;;;30.20;99.90;;;;;;5051002;28;20044;-67
2023/09/10 12:17:05;;;;;;;20.65;9.35;;;30.40;99.90;;;;;;5038317;28;20044;-67
2023/09/10 12:19:33;;;;;;;23.77;9.80;;;30.40;99.90;;;;;;5020464;28;20032;-67
2023/09/10 12:21:58;;;;;;;19.85;9.57;;;30.40;99.90;;;;;;5050694;28;20511;-67
2023/09/10 12:24:25;;;;;;;18.60;8.85;;;30.40;99.90;;;;;;5049786;28;20041;-66
2023/09/10 12:26:51;;;;;;;23.65;9.48;;;30.40;99.90;;;;;;5030940;28;20040;-66
2023/09/10 12:29:16;;;;;;;19.80;9.27;;;30.40;99.90;;;;;;5044889;28;20775;-67
2023/09/10 12:31:43;;;;;;;18.98;9.65;;;30.30;99.90;;;;;;5050929;28;20039;-66